sensor_id;sensor_type;location;lat;lon;timestamp;P1;durP1;ratioP1;P2;durP2;ratioP2
6412;SDS011;3239;48.714;9.472;2023-06-26T00:01:23;7.37;;;6.67;;
6412;SDS011;3239;48.714;9.472;2023-06-26T00:03:49;8.07;;;7.20;;
6412;SDS011;3239;48.714;9.472;2023-06-26T00:06:14;7.70;;;6.90;;
6412;SDS011;3239;48.714;9.472;2023-06-26T00:08:40;7.17;;;6.47;;
6412;SDS011;3239;48.714;9.472;2023-06-26T00:11:06;7.27;;;6.57;;
6412;SDS011;3239;48.714;9.472;2023-06-26T00:13:32;7.23;;;6.60;;
6412;SDS011;3239;48.714;9.472;2023-06-26T00:15:58;8.97;;;7.30;;
6412;SDS011;3239;48.714;9.472;2023-06-26T00:18:28;8.37;;;7.40;;
6412;SDS011;3239;48.714;9.472;2023-06-26T00:20:54;8.13;;;7.10;;
6412;SDS011;3239;48.714;9.472;2023-06-26T00:23:20;7.33;;;6.57;;
6412;SDS011;3239;48.714;9.472;2023-06-26T00:25:45;8.80;;;6.77;;
6412;SDS011;3239;48.714;9.472;2023-06-26T00:28:11;7.53;;;6.30;;
6412;SDS011;3239;48.714;9.472;2023-06-26T00:30:37;9.20;;;6.90;;
6412;SDS011;3239;48.714;9.472;2023-06-26T00:33:03;9.67;;;6.97;;
6412;SDS011;3239;48.714;9.472;2023-06-26T00:35:28;7.77;;;6.80;;
6412;SDS011;3239;48.714;9.472;2023-06-26T00:37:54;7.63;;;6.93;;
6412;SDS011;3239;48.714;9.472;2023-06-26T00:40:20;7.90;;;7.10;;
6412;SDS011;3239;48.714;9.472;2023-06-26T00:42:46;11.50;;;7.60;;
6412;SDS011;3239;48.714;9.472;2023-06-26T00:45:11;8.70;;;6.73;;
6412;SDS011;3239;48.714;9.472;2023-06-26T00:47:37;10.20;;;7.10;;
6412;SDS011;3239;48.714;9.472;2023-06-26T00:50:04;8.00;;;7.20;;
6412;SDS011;3239;48.714;9.472;2023-06-26T00:52:31;10.13;;;7.30;;
6412;SDS011;3239;48.714;9.472;2023-06-26T00:54:57;9.33;;;6.97;;
6412;SDS011;3239;48.714;9.472;2023-06-26T00:57:23;7.70;;;6.93;;
6412;SDS011;3239;48.714;9.472;2023-06-26T00:59:49;9.30;;;7.40;;
6412;SDS011;3239;48.714;9.472;2023-06-26T01:02:15;7.80;;;6.80;;
6412;SDS011;3239;48.714;9.472;2023-06-26T01:04:51;7.10;;;6.40;;
6412;SDS011;3239;48.714;9.472;2023-06-26T01:07:18;8.30;;;6.90;;
6412;SDS011;3239;48.714;9.472;2023-06-26T01:09:47;8.77;;;6.83;;
6412;SDS011;3239;48.714;9.472;2023-06-26T01:12:14;7.57;;;6.77;;
6412;SDS011;3239;48.714;9.472;2023-06-26T01:14:40;8.77;;;7.57;;
6412;SDS011;3239;48.714;9.472;2023-06-26T01:17:06;8.87;;;6.60;;
6412;SDS011;3239;48.714;9.472;2023-06-26T01:19:37;11.43;;;7.37;;
6412;SDS011;3239;48.714;9.472;2023-06-26T01:22:15;8.40;;;7.00;;
6412;SDS011;3239;48.714;9.472;2023-06-26T01:27:48;8.97;;;7.20;;
6412;SDS011;3239;48.714;9.472;2023-06-26T01:30:17;13.80;;;8.00;;
6412;SDS011;3239;48.714;9.472;2023-06-26T01:32:45;8.83;;;7.30;;
6412;SDS011;3239;48.714;9.472;2023-06-26T01:35:11;7.73;;;6.97;;
6412;SDS011;3239;48.714;9.472;2023-06-26T01:37:39;9.53;;;7.67;;
6412;SDS011;3239;48.714;9.472;2023-06-26T01:40:05;8.47;;;7.57;;
6412;SDS011;3239;48.714;9.472;2023-06-26T01:42:32;7.57;;;6.77;;
6412;SDS011;3239;48.714;9.472;2023-06-26T01:45:05;8.10;;;6.70;;
6412;SDS011;3239;48.714;9.472;2023-06-26T01:47:40;13.13;;;7.40;;
6412;SDS011;3239;48.714;9.472;2023-06-26T01:50:14;11.20;;;6.97;;
6412;SDS011;3239;48.714;9.472;2023-06-26T01:55:41;8.00;;;6.50;;
6412;SDS011;3239;48.714;9.472;2023-06-26T01:58:25;8.30;;;7.47;;
6412;SDS011;3239;48.714;9.472;2023-06-26T02:00:52;9.63;;;7.57;;
6412;SDS011;3239;48.714;9.472;2023-06-26T02:03:19;7.83;;;7.03;;
6412;SDS011;3239;48.714;9.472;2023-06-26T02:05:45;8.10;;;7.30;;
6412;SDS011;3239;48.714;9.472;2023-06-26T02:08:13;8.77;;;7.63;;
6412;SDS011;3239;48.714;9.472;2023-06-26T02:10:40;8.43;;;7.53;;
6412;SDS011;3239;48.714;9.472;2023-06-26T02:13:05;9.37;;;7.80;;
6412;SDS011;3239;48.714;9.472;2023-06-26T02:15:31;8.53;;;7.30;;
6412;SDS011;3239;48.714;9.472;2023-06-26T02:17:57;11.47;;;7.60;;
6412;SDS011;3239;48.714;9.472;2023-06-26T02:20:23;7.87;;;7.10;;
6412;SDS011;3239;48.714;9.472;2023-06-26T02:22:48;10.30;;;7.70;;
6412;SDS011;3239;48.714;9.472;2023-06-26T02:25:14;8.53;;;6.60;;
6412;SDS011;3239;48.714;9.472;2023-06-26T02:27:40;8.10;;;7.20;;
6412;SDS011;3239;48.714;9.472;2023-06-26T02:30:07;8.27;;;6.53;;
6412;SDS011;3239;48.714;9.472;2023-06-26T02:32:34;11.27;;;7.67;;
6412;SDS011;3239;48.714;9.472;2023-06-26T02:35:00;7.93;;;7.13;;
6412;SDS011;3239;48.714;9.472;2023-06-26T02:37:26;8.27;;;7.43;;
6412;SDS011;3239;48.714;9.472;2023-06-26T02:39:52;8.83;;;7.10;;
6412;SDS011;3239;48.714;9.472;2023-06-26T02:42:17;7.70;;;6.73;;
6412;SDS011;3239;48.714;9.472;2023-06-26T02:44:43;8.67;;;6.80;;
6412;SDS011;3239;48.714;9.472;2023-06-26T02:47:09;10.60;;;7.73;;
6412;SDS011;3239;48.714;9.472;2023-06-26T02:49:35;8.13;;;6.80;;
6412;SDS011;3239;48.714;9.472;2023-06-26T02:52:00;10.13;;;7.20;;
6412;SDS011;3239;48.714;9.472;2023-06-26T02:54:26;11.47;;;7.20;;
6412;SDS011;3239;48.714;9.472;2023-06-26T02:56:52;7.40;;;6.70;;
6412;SDS011;3239;48.714;9.472;2023-06-26T02:59:18;8.50;;;7.03;;
6412;SDS011;3239;48.714;9.472;2023-06-26T03:01:44;7.07;;;6.33;;
6412;SDS011;3239;48.714;9.472;2023-06-26T03:04:09;8.87;;;6.93;;
6412;SDS011;3239;48.714;9.472;2023-06-26T03:06:35;8.00;;;7.00;;
6412;SDS011;3239;48.714;9.472;2023-06-26T03:09:01;8.87;;;7.17;;
6412;SDS011;3239;48.714;9.472;2023-06-26T03:11:27;7.57;;;6.87;;
6412;SDS011;3239;48.714;9.472;2023-06-26T03:13:53;7.83;;;6.80;;
6412;SDS011;3239;48.714;9.472;2023-06-26T03:16:19;9.93;;;8.10;;
6412;SDS011;3239;48.714;9.472;2023-06-26T03:18:45;8.00;;;7.20;;
6412;SDS011;3239;48.714;9.472;2023-06-26T03:21:10;9.80;;;6.80;;
6412;SDS011;3239;48.714;9.472;2023-06-26T03:23:36;8.90;;;7.73;;
6412;SDS011;3239;48.714;9.472;2023-06-26T03:26:02;8.00;;;7.13;;
6412;SDS011;3239;48.714;9.472;2023-06-26T03:28:28;10.53;;;7.00;;
6412;SDS011;3239;48.714;9.472;2023-06-26T03:30:56;7.30;;;6.60;;
6412;SDS011;3239;48.714;9.472;2023-06-26T03:33:21;8.63;;;6.97;;
6412;SDS011;3239;48.714;9.472;2023-06-26T03:35:47;8.63;;;7.70;;
6412;SDS011;3239;48.714;9.472;2023-06-26T03:38:13;7.87;;;7.07;;
6412;SDS011;3239;48.714;9.472;2023-06-26T03:40:39;8.20;;;7.27;;
6412;SDS011;3239;48.714;9.472;2023-06-26T03:43:04;9.60;;;7.43;;
6412;SDS011;3239;48.714;9.472;2023-06-26T03:45:30;8.13;;;7.33;;
6412;SDS011;3239;48.714;9.472;2023-06-26T03:47:56;9.87;;;7.13;;
6412;SDS011;3239;48.714;9.472;2023-06-26T03:50:21;8.40;;;7.20;;
6412;SDS011;3239;48.714;9.472;2023-06-26T03:52:47;8.80;;;6.97;;
6412;SDS011;3239;48.714;9.472;2023-06-26T03:55:14;8.33;;;7.53;;
6412;SDS011;3239;48.714;9.472;2023-06-26T03:57:40;9.00;;;7.33;;
6412;SDS011;3239;48.714;9.472;2023-06-26T04:00:06;8.93;;;7.57;;
6412;SDS011;3239;48.714;9.472;2023-06-26T04:02:38;8.97;;;8.07;;
6412;SDS011;3239;48.714;9.472;2023-06-26T04:05:04;8.60;;;6.80;;
6412;SDS011;3239;48.714;9.472;2023-06-26T04:07:30;9.00;;;7.30;;
6412;SDS011;3239;48.714;9.472;2023-06-26T04:09:59;8.40;;;7.10;;
6412;SDS011;3239;48.714;9.472;2023-06-26T04:12:25;11.97;;;7.57;;
6412;SDS011;3239;48.714;9.472;2023-06-26T04:14:51;9.40;;;7.80;;
6412;SDS011;3239;48.714;9.472;2023-06-26T04:17:16;8.70;;;7.43;;
6412;SDS011;3239;48.714;9.472;2023-06-26T04:19:42;8.67;;;7.77;;
6412;SDS011;3239;48.714;9.472;2023-06-26T04:22:08;8.30;;;7.03;;
6412;SDS011;3239;48.714;9.472;2023-06-26T04:24:34;8.67;;;7.77;;
6412;SDS011;3239;48.714;9.472;2023-06-26T04:26:59;9.60;;;8.17;;
6412;SDS011;3239;48.714;9.472;2023-06-26T04:29:28;9.10;;;8.10;;
6412;SDS011;3239;48.714;9.472;2023-06-26T04:31:53;7.70;;;6.83;;
6412;SDS011;3239;48.714;9.472;2023-06-26T04:34:26;9.90;;;7.80;;
6412;SDS011;3239;48.714;9.472;2023-06-26T04:36:53;7.83;;;7.03;;
6412;SDS011;3239;48.714;9.472;2023-06-26T04:39:19;8.27;;;7.37;;
6412;SDS011;3239;48.714;9.472;2023-06-26T04:41:45;8.07;;;7.27;;
6412;SDS011;3239;48.714;9.472;2023-06-26T04:44:11;8.47;;;6.90;;
6412;SDS011;3239;48.714;9.472;2023-06-26T04:46:37;10.43;;;6.90;;
6412;SDS011;3239;48.714;9.472;2023-06-26T04:49:09;7.97;;;7.13;;
6412;SDS011;3239;48.714;9.472;2023-06-26T04:51:36;9.70;;;7.70;;
6412;SDS011;3239;48.714;9.472;2023-06-26T04:54:06;11.43;;;8.13;;
6412;SDS011;3239;48.714;9.472;2023-06-26T04:56:33;7.67;;;6.90;;
6412;SDS011;3239;48.714;9.472;2023-06-26T04:58:59;9.97;;;8.50;;
6412;SDS011;3239;48.714;9.472;2023-06-26T05:01:24;9.60;;;8.30;;
6412;SDS011;3239;48.714;9.472;2023-06-26T05:03:54;9.97;;;7.67;;
6412;SDS011;3239;48.714;9.472;2023-06-26T05:06:25;8.10;;;7.23;;
6412;SDS011;3239;48.714;9.472;2023-06-26T05:08:51;8.67;;;7.67;;
6412;SDS011;3239;48.714;9.472;2023-06-26T05:11:16;11.77;;;8.07;;
6412;SDS011;3239;48.714;9.472;2023-06-26T05:13:42;9.27;;;6.97;;
6412;SDS011;3239;48.714;9.472;2023-06-26T05:16:08;10.50;;;7.20;;
6412;SDS011;3239;48.714;9.472;2023-06-26T05:18:34;9.00;;;7.20;;
6412;SDS011;3239;48.714;9.472;2023-06-26T05:21:01;8.23;;;7.37;;
6412;SDS011;3239;48.714;9.472;2023-06-26T05:23:27;9.30;;;8.10;;
6412;SDS011;3239;48.714;9.472;2023-06-26T05:25:57;7.77;;;6.97;;
6412;SDS011;3239;48.714;9.472;2023-06-26T05:28:23;9.57;;;7.83;;
6412;SDS011;3239;48.714;9.472;2023-06-26T05:30:53;8.53;;;6.97;;
6412;SDS011;3239;48.714;9.472;2023-06-26T05:33:20;8.90;;;7.27;;
6412;SDS011;3239;48.714;9.472;2023-06-26T05:35:49;8.80;;;7.80;;
6412;SDS011;3239;48.714;9.472;2023-06-26T05:38:18;8.40;;;7.30;;
6412;SDS011;3239;48.714;9.472;2023-06-26T05:40:44;8.43;;;6.80;;
6412;SDS011;3239;48.714;9.472;2023-06-26T05:43:10;9.80;;;8.00;;
6412;SDS011;3239;48.714;9.472;2023-06-26T05:45:36;9.33;;;7.87;;
6412;SDS011;3239;48.714;9.472;2023-06-26T05:48:02;10.40;;;7.00;;
6412;SDS011;3239;48.714;9.472;2023-06-26T05:50:29;12.13;;;7.67;;
6412;SDS011;3239;48.714;9.472;2023-06-26T05:52:55;9.87;;;8.33;;
6412;SDS011;3239;48.714;9.472;2023-06-26T05:55:21;10.30;;;7.00;;
6412;SDS011;3239;48.714;9.472;2023-06-26T05:57:47;10.17;;;7.87;;
6412;SDS011;3239;48.714;9.472;2023-06-26T06:00:15;8.67;;;7.80;;
6412;SDS011;3239;48.714;9.472;2023-06-26T06:02:42;8.57;;;7.67;;
6412;SDS011;3239;48.714;9.472;2023-06-26T06:05:08;8.87;;;6.70;;
6412;SDS011;3239;48.714;9.472;2023-06-26T06:07:35;14.70;;;7.97;;
6412;SDS011;3239;48.714;9.472;2023-06-26T06:10:02;10.00;;;7.97;;
6412;SDS011;3239;48.714;9.472;2023-06-26T06:12:29;13.53;;;7.87;;
6412;SDS011;3239;48.714;9.472;2023-06-26T06:14:55;11.53;;;7.00;;
6412;SDS011;3239;48.714;9.472;2023-06-26T06:17:22;7.50;;;6.80;;
6412;SDS011;3239;48.714;9.472;2023-06-26T06:19:48;9.77;;;7.03;;
6412;SDS011;3239;48.714;9.472;2023-06-26T06:22:14;9.03;;;6.70;;
6412;SDS011;3239;48.714;9.472;2023-06-26T06:24:41;9.70;;;7.63;;
6412;SDS011;3239;48.714;9.472;2023-06-26T06:27:07;8.23;;;6.47;;
6412;SDS011;3239;48.714;9.472;2023-06-26T06:29:33;13.40;;;7.97;;
6412;SDS011;3239;48.714;9.472;2023-06-26T06:31:58;9.30;;;6.67;;
6412;SDS011;3239;48.714;9.472;2023-06-26T06:34:24;9.87;;;6.97;;
6412;SDS011;3239;48.714;9.472;2023-06-26T06:36:50;8.57;;;7.00;;
6412;SDS011;3239;48.714;9.472;2023-06-26T06:39:16;9.73;;;7.50;;
6412;SDS011;3239;48.714;9.472;2023-06-26T06:41:41;13.70;;;7.23;;
6412;SDS011;3239;48.714;9.472;2023-06-26T06:44:07;8.77;;;6.97;;
6412;SDS011;3239;48.714;9.472;2023-06-26T06:46:33;8.17;;;6.80;;
6412;SDS011;3239;48.714;9.472;2023-06-26T06:49:00;7.70;;;6.33;;
6412;SDS011;3239;48.714;9.472;2023-06-26T06:51:32;7.43;;;6.73;;
6412;SDS011;3239;48.714;9.472;2023-06-26T06:53:58;7.73;;;6.93;;
6412;SDS011;3239;48.714;9.472;2023-06-26T06:56:24;9.93;;;6.50;;
6412;SDS011;3239;48.714;9.472;2023-06-26T06:58:49;7.60;;;6.90;;
6412;SDS011;3239;48.714;9.472;2023-06-26T07:01:15;7.10;;;6.40;;
6412;SDS011;3239;48.714;9.472;2023-06-26T07:03:41;14.93;;;6.50;;
6412;SDS011;3239;48.714;9.472;2023-06-26T07:06:07;10.37;;;6.30;;
6412;SDS011;3239;48.714;9.472;2023-06-26T07:08:32;7.20;;;6.50;;
6412;SDS011;3239;48.714;9.472;2023-06-26T07:10:58;6.63;;;6.00;;
6412;SDS011;3239;48.714;9.472;2023-06-26T07:13:24;7.13;;;6.37;;
6412;SDS011;3239;48.714;9.472;2023-06-26T07:15:50;9.37;;;7.00;;
6412;SDS011;3239;48.714;9.472;2023-06-26T07:18:16;6.73;;;6.03;;
6412;SDS011;3239;48.714;9.472;2023-06-26T07:20:42;7.03;;;6.37;;
6412;SDS011;3239;48.714;9.472;2023-06-26T07:23:07;6.40;;;5.80;;
6412;SDS011;3239;48.714;9.472;2023-06-26T07:25:34;6.87;;;5.90;;
6412;SDS011;3239;48.714;9.472;2023-06-26T07:28:00;13.67;;;6.50;;
6412;SDS011;3239;48.714;9.472;2023-06-26T07:30:26;5.90;;;5.30;;
6412;SDS011;3239;48.714;9.472;2023-06-26T07:32:51;6.07;;;5.47;;
6412;SDS011;3239;48.714;9.472;2023-06-26T07:35:17;6.43;;;5.83;;
6412;SDS011;3239;48.714;9.472;2023-06-26T07:37:43;8.07;;;5.90;;
6412;SDS011;3239;48.714;9.472;2023-06-26T07:40:09;11.50;;;5.53;;
6412;SDS011;3239;48.714;9.472;2023-06-26T07:42:35;9.50;;;5.40;;
6412;SDS011;3239;48.714;9.472;2023-06-26T07:45:01;6.30;;;5.70;;
6412;SDS011;3239;48.714;9.472;2023-06-26T07:47:30;6.60;;;5.30;;
6412;SDS011;3239;48.714;9.472;2023-06-26T07:49:55;6.30;;;4.57;;
6412;SDS011;3239;48.714;9.472;2023-06-26T07:52:21;6.50;;;5.30;;
6412;SDS011;3239;48.714;9.472;2023-06-26T07:54:47;7.57;;;5.63;;
6412;SDS011;3239;48.714;9.472;2023-06-26T07:57:12;8.80;;;4.80;;
6412;SDS011;3239;48.714;9.472;2023-06-26T07:59:38;6.07;;;5.47;;
6412;SDS011;3239;48.714;9.472;2023-06-26T08:02:04;7.90;;;5.13;;
6412;SDS011;3239;48.714;9.472;2023-06-26T08:04:30;6.30;;;5.40;;
6412;SDS011;3239;48.714;9.472;2023-06-26T08:07:00;7.23;;;5.40;;
6412;SDS011;3239;48.714;9.472;2023-06-26T08:09:27;6.10;;;5.50;;
6412;SDS011;3239;48.714;9.472;2023-06-26T08:11:54;9.77;;;5.50;;
6412;SDS011;3239;48.714;9.472;2023-06-26T08:14:21;5.60;;;5.10;;
6412;SDS011;3239;48.714;9.472;2023-06-26T08:16:47;16.30;;;5.73;;
6412;SDS011;3239;48.714;9.472;2023-06-26T08:19:13;5.87;;;5.37;;
6412;SDS011;3239;48.714;9.472;2023-06-26T08:21:40;6.47;;;5.67;;
6412;SDS011;3239;48.714;9.472;2023-06-26T08:24:06;5.83;;;5.23;;
6412;SDS011;3239;48.714;9.472;2023-06-26T08:26:32;5.63;;;5.13;;
6412;SDS011;3239;48.714;9.472;2023-06-26T08:28:59;6.40;;;5.57;;
6412;SDS011;3239;48.714;9.472;2023-06-26T08:31:25;5.80;;;5.10;;
6412;SDS011;3239;48.714;9.472;2023-06-26T08:33:51;12.10;;;5.97;;
6412;SDS011;3239;48.714;9.472;2023-06-26T08:36:16;12.53;;;5.50;;
6412;SDS011;3239;48.714;9.472;2023-06-26T08:38:42;4.97;;;4.57;;
6412;SDS011;3239;48.714;9.472;2023-06-26T08:41:08;7.53;;;5.33;;
6412;SDS011;3239;48.714;9.472;2023-06-26T08:43:34;5.40;;;5.00;;
6412;SDS011;3239;48.714;9.472;2023-06-26T08:46:01;8.60;;;4.93;;
6412;SDS011;3239;48.714;9.472;2023-06-26T08:48:29;5.97;;;5.47;;
6412;SDS011;3239;48.714;9.472;2023-06-26T08:50:59;8.70;;;5.30;;
6412;SDS011;3239;48.714;9.472;2023-06-26T08:53:39;6.00;;;5.43;;
6412;SDS011;3239;48.714;9.472;2023-06-26T08:56:11;5.37;;;4.87;;
6412;SDS011;3239;48.714;9.472;2023-06-26T08:58:42;5.63;;;5.13;;
6412;SDS011;3239;48.714;9.472;2023-06-26T09:01:09;5.70;;;5.20;;
6412;SDS011;3239;48.714;9.472;2023-06-26T09:03:35;8.13;;;5.20;;
6412;SDS011;3239;48.714;9.472;2023-06-26T09:06:01;6.87;;;5.10;;
6412;SDS011;3239;48.714;9.472;2023-06-26T09:08:27;7.50;;;5.77;;
6412;SDS011;3239;48.714;9.472;2023-06-26T09:10:53;5.60;;;4.93;;
6412;SDS011;3239;48.714;9.472;2023-06-26T09:13:19;6.67;;;4.80;;
6412;SDS011;3239;48.714;9.472;2023-06-26T09:15:45;6.13;;;4.70;;
6412;SDS011;3239;48.714;9.472;2023-06-26T09:18:11;6.40;;;5.13;;
6412;SDS011;3239;48.714;9.472;2023-06-26T09:20:38;6.40;;;4.93;;
6412;SDS011;3239;48.714;9.472;2023-06-26T09:23:04;11.33;;;5.80;;
6412;SDS011;3239;48.714;9.472;2023-06-26T09:25:30;6.40;;;5.40;;
6412;SDS011;3239;48.714;9.472;2023-06-26T09:27:56;5.40;;;4.90;;
6412;SDS011;3239;48.714;9.472;2023-06-26T09:30:22;5.60;;;4.97;;
6412;SDS011;3239;48.714;9.472;2023-06-26T09:32:48;6.60;;;4.77;;
6412;SDS011;3239;48.714;9.472;2023-06-26T09:35:19;5.40;;;4.90;;
6412;SDS011;3239;48.714;9.472;2023-06-26T09:37:45;12.77;;;5.10;;
6412;SDS011;3239;48.714;9.472;2023-06-26T09:40:10;6.90;;;5.20;;
6412;SDS011;3239;48.714;9.472;2023-06-26T09:42:38;6.10;;;5.00;;
6412;SDS011;3239;48.714;9.472;2023-06-26T09:45:04;4.90;;;4.17;;
6412;SDS011;3239;48.714;9.472;2023-06-26T09:47:30;5.40;;;5.00;;
6412;SDS011;3239;48.714;9.472;2023-06-26T09:49:58;6.90;;;4.67;;
6412;SDS011;3239;48.714;9.472;2023-06-26T09:52:25;9.10;;;4.47;;
6412;SDS011;3239;48.714;9.472;2023-06-26T09:55:06;5.53;;;5.03;;
6412;SDS011;3239;48.714;9.472;2023-06-26T09:57:36;5.83;;;5.30;;
6412;SDS011;3239;48.714;9.472;2023-06-26T10:00:03;5.23;;;4.77;;
6412;SDS011;3239;48.714;9.472;2023-06-26T10:02:30;5.13;;;4.63;;
6412;SDS011;3239;48.714;9.472;2023-06-26T10:04:57;5.27;;;4.87;;
6412;SDS011;3239;48.714;9.472;2023-06-26T10:07:22;8.03;;;4.17;;
6412;SDS011;3239;48.714;9.472;2023-06-26T10:09:49;9.63;;;4.70;;
6412;SDS011;3239;48.714;9.472;2023-06-26T10:12:19;4.90;;;4.40;;
6412;SDS011;3239;48.714;9.472;2023-06-26T10:14:51;5.87;;;5.37;;
6412;SDS011;3239;48.714;9.472;2023-06-26T10:17:19;4.93;;;4.53;;
6412;SDS011;3239;48.714;9.472;2023-06-26T10:19:46;5.37;;;4.97;;
6412;SDS011;3239;48.714;9.472;2023-06-26T10:22:15;6.73;;;4.63;;
6412;SDS011;3239;48.714;9.472;2023-06-26T10:24:43;5.37;;;4.87;;
6412;SDS011;3239;48.714;9.472;2023-06-26T10:27:15;4.87;;;4.47;;
6412;SDS011;3239;48.714;9.472;2023-06-26T10:29:55;4.70;;;4.30;;
6412;SDS011;3239;48.714;9.472;2023-06-26T10:32:25;4.93;;;4.50;;
6412;SDS011;3239;48.714;9.472;2023-06-26T10:34:52;6.07;;;4.30;;
6412;SDS011;3239;48.714;9.472;2023-06-26T10:37:20;4.70;;;4.30;;
6412;SDS011;3239;48.714;9.472;2023-06-26T10:39:46;8.07;;;4.80;;
6412;SDS011;3239;48.714;9.472;2023-06-26T10:42:15;5.03;;;3.90;;
6412;SDS011;3239;48.714;9.472;2023-06-26T10:44:42;5.10;;;4.70;;
6412;SDS011;3239;48.714;9.472;2023-06-26T10:47:10;5.30;;;4.33;;
6412;SDS011;3239;48.714;9.472;2023-06-26T10:49:53;4.40;;;4.00;;
6412;SDS011;3239;48.714;9.472;2023-06-26T10:52:19;7.10;;;4.10;;
6412;SDS011;3239;48.714;9.472;2023-06-26T10:54:44;5.13;;;4.60;;
6412;SDS011;3239;48.714;9.472;2023-06-26T10:57:10;7.80;;;4.53;;
6412;SDS011;3239;48.714;9.472;2023-06-26T10:59:39;5.50;;;4.63;;
6412;SDS011;3239;48.714;9.472;2023-06-26T11:02:06;4.67;;;4.20;;
6412;SDS011;3239;48.714;9.472;2023-06-26T11:04:44;6.57;;;4.47;;
6412;SDS011;3239;48.714;9.472;2023-06-26T11:09:58;9.70;;;4.30;;
6412;SDS011;3239;48.714;9.472;2023-06-26T11:12:35;11.47;;;4.67;;
6412;SDS011;3239;48.714;9.472;2023-06-26T11:15:10;7.30;;;4.73;;
6412;SDS011;3239;48.714;9.472;2023-06-26T11:17:38;5.17;;;4.67;;
6412;SDS011;3239;48.714;9.472;2023-06-26T11:20:05;5.47;;;4.97;;
6412;SDS011;3239;48.714;9.472;2023-06-26T11:22:34;8.83;;;5.20;;
6412;SDS011;3239;48.714;9.472;2023-06-26T11:25:02;5.80;;;5.20;;
6412;SDS011;3239;48.714;9.472;2023-06-26T11:30:05;5.87;;;5.37;;
6412;SDS011;3239;48.714;9.472;2023-06-26T11:32:32;5.70;;;4.83;;
6412;SDS011;3239;48.714;9.472;2023-06-26T11:34:58;6.13;;;5.57;;
6412;SDS011;3239;48.714;9.472;2023-06-26T11:37:25;6.10;;;4.87;;
6412;SDS011;3239;48.714;9.472;2023-06-26T11:39:51;6.77;;;5.00;;
6412;SDS011;3239;48.714;9.472;2023-06-26T11:42:17;7.53;;;5.00;;
6412;SDS011;3239;48.714;9.472;2023-06-26T11:44:44;9.10;;;5.40;;
6412;SDS011;3239;48.714;9.472;2023-06-26T11:47:14;5.77;;;5.10;;
6412;SDS011;3239;48.714;9.472;2023-06-26T11:49:45;6.20;;;5.60;;
6412;SDS011;3239;48.714;9.472;2023-06-26T11:52:13;5.20;;;4.80;;
6412;SDS011;3239;48.714;9.472;2023-06-26T11:54:40;5.80;;;5.30;;
6412;SDS011;3239;48.714;9.472;2023-06-26T11:57:07;6.50;;;5.73;;
6412;SDS011;3239;48.714;9.472;2023-06-26T11:59:37;5.67;;;5.17;;
6412;SDS011;3239;48.714;9.472;2023-06-26T12:02:10;5.93;;;4.60;;
6412;SDS011;3239;48.714;9.472;2023-06-26T12:04:42;7.93;;;5.27;;
6412;SDS011;3239;48.714;9.472;2023-06-26T12:07:09;7.50;;;5.20;;
6412;SDS011;3239;48.714;9.472;2023-06-26T12:09:44;6.43;;;5.13;;
6412;SDS011;3239;48.714;9.472;2023-06-26T12:12:13;5.40;;;4.90;;
6412;SDS011;3239;48.714;9.472;2023-06-26T12:14:41;5.53;;;5.03;;
6412;SDS011;3239;48.714;9.472;2023-06-26T12:17:11;8.50;;;5.00;;
6412;SDS011;3239;48.714;9.472;2023-06-26T12:19:39;6.33;;;5.73;;
6412;SDS011;3239;48.714;9.472;2023-06-26T12:22:16;5.93;;;5.43;;
6412;SDS011;3239;48.714;9.472;2023-06-26T12:24:43;7.13;;;4.80;;
6412;SDS011;3239;48.714;9.472;2023-06-26T12:27:11;5.63;;;5.23;;
6412;SDS011;3239;48.714;9.472;2023-06-26T12:29:39;7.07;;;5.13;;
6412;SDS011;3239;48.714;9.472;2023-06-26T12:32:10;6.90;;;5.73;;
6412;SDS011;3239;48.714;9.472;2023-06-26T12:34:37;10.10;;;5.20;;
6412;SDS011;3239;48.714;9.472;2023-06-26T12:37:04;5.83;;;5.17;;
6412;SDS011;3239;48.714;9.472;2023-06-26T12:39:45;7.23;;;5.47;;
6412;SDS011;3239;48.714;9.472;2023-06-26T12:42:18;6.50;;;5.10;;
6412;SDS011;3239;48.714;9.472;2023-06-26T12:44:47;5.70;;;5.00;;
6412;SDS011;3239;48.714;9.472;2023-06-26T12:47:14;5.93;;;5.43;;
6412;SDS011;3239;48.714;9.472;2023-06-26T12:49:42;5.70;;;5.20;;
6412;SDS011;3239;48.714;9.472;2023-06-26T12:52:13;10.33;;;5.10;;
6412;SDS011;3239;48.714;9.472;2023-06-26T12:54:41;6.10;;;5.50;;
6412;SDS011;3239;48.714;9.472;2023-06-26T12:57:08;9.23;;;5.60;;
6412;SDS011;3239;48.714;9.472;2023-06-26T12:59:35;7.50;;;5.70;;
6412;SDS011;3239;48.714;9.472;2023-06-26T13:02:02;5.57;;;5.13;;
6412;SDS011;3239;48.714;9.472;2023-06-26T13:04:29;6.40;;;4.57;;
6412;SDS011;3239;48.714;9.472;2023-06-26T13:06:54;6.90;;;5.13;;
6412;SDS011;3239;48.714;9.472;2023-06-26T13:09:21;9.77;;;5.70;;
6412;SDS011;3239;48.714;9.472;2023-06-26T13:11:50;7.43;;;5.30;;
6412;SDS011;3239;48.714;9.472;2023-06-26T13:14:16;6.10;;;5.50;;
6412;SDS011;3239;48.714;9.472;2023-06-26T13:16:42;13.13;;;5.80;;
6412;SDS011;3239;48.714;9.472;2023-06-26T13:19:08;10.27;;;5.37;;
6412;SDS011;3239;48.714;9.472;2023-06-26T13:21:34;6.77;;;5.50;;
6412;SDS011;3239;48.714;9.472;2023-06-26T13:24:00;8.03;;;6.13;;
6412;SDS011;3239;48.714;9.472;2023-06-26T13:26:26;5.60;;;5.00;;
6412;SDS011;3239;48.714;9.472;2023-06-26T13:28:53;8.73;;;4.90;;
6412;SDS011;3239;48.714;9.472;2023-06-26T13:31:20;5.50;;;5.00;;
6412;SDS011;3239;48.714;9.472;2023-06-26T13:33:46;6.00;;;5.50;;
6412;SDS011;3239;48.714;9.472;2023-06-26T13:36:19;5.87;;;5.27;;
6412;SDS011;3239;48.714;9.472;2023-06-26T13:38:46;5.33;;;4.80;;
6412;SDS011;3239;48.714;9.472;2023-06-26T13:41:13;14.90;;;5.60;;
6412;SDS011;3239;48.714;9.472;2023-06-26T13:43:39;6.80;;;5.03;;
6412;SDS011;3239;48.714;9.472;2023-06-26T13:46:05;5.80;;;5.20;;
6412;SDS011;3239;48.714;9.472;2023-06-26T13:48:30;5.87;;;5.03;;
6412;SDS011;3239;48.714;9.472;2023-06-26T13:50:58;8.83;;;4.93;;
6412;SDS011;3239;48.714;9.472;2023-06-26T13:53:24;9.13;;;5.03;;
6412;SDS011;3239;48.714;9.472;2023-06-26T13:55:50;6.10;;;5.37;;
6412;SDS011;3239;48.714;9.472;2023-06-26T13:58:16;8.73;;;5.07;;
6412;SDS011;3239;48.714;9.472;2023-06-26T14:00:41;6.00;;;5.40;;
6412;SDS011;3239;48.714;9.472;2023-06-26T14:03:09;10.73;;;5.77;;
6412;SDS011;3239;48.714;9.472;2023-06-26T14:05:35;5.60;;;5.10;;
6412;SDS011;3239;48.714;9.472;2023-06-26T14:08:03;7.03;;;5.37;;
6412;SDS011;3239;48.714;9.472;2023-06-26T14:10:30;7.60;;;5.10;;
6412;SDS011;3239;48.714;9.472;2023-06-26T14:12:58;12.57;;;5.03;;
6412;SDS011;3239;48.714;9.472;2023-06-26T14:15:24;6.00;;;5.10;;
6412;SDS011;3239;48.714;9.472;2023-06-26T14:17:50;6.13;;;4.63;;
6412;SDS011;3239;48.714;9.472;2023-06-26T14:20:17;6.13;;;5.50;;
6412;SDS011;3239;48.714;9.472;2023-06-26T14:22:44;8.97;;;4.70;;
6412;SDS011;3239;48.714;9.472;2023-06-26T14:25:10;7.37;;;5.30;;
6412;SDS011;3239;48.714;9.472;2023-06-26T14:27:37;5.47;;;4.97;;
6412;SDS011;3239;48.714;9.472;2023-06-26T14:30:03;8.77;;;4.80;;
6412;SDS011;3239;48.714;9.472;2023-06-26T14:32:30;5.10;;;4.70;;
6412;SDS011;3239;48.714;9.472;2023-06-26T14:34:56;7.63;;;5.30;;
6412;SDS011;3239;48.714;9.472;2023-06-26T14:37:23;5.30;;;4.80;;
6412;SDS011;3239;48.714;9.472;2023-06-26T14:39:50;5.73;;;4.40;;
6412;SDS011;3239;48.714;9.472;2023-06-26T14:42:16;5.10;;;4.60;;
6412;SDS011;3239;48.714;9.472;2023-06-26T14:44:42;5.67;;;4.50;;
6412;SDS011;3239;48.714;9.472;2023-06-26T14:47:08;5.50;;;4.33;;
6412;SDS011;3239;48.714;9.472;2023-06-26T14:49:33;8.10;;;4.63;;
6412;SDS011;3239;48.714;9.472;2023-06-26T14:51:59;5.13;;;4.53;;
6412;SDS011;3239;48.714;9.472;2023-06-26T14:54:25;4.70;;;4.00;;
6412;SDS011;3239;48.714;9.472;2023-06-26T14:56:51;8.33;;;4.83;;
6412;SDS011;3239;48.714;9.472;2023-06-26T14:59:16;5.27;;;4.87;;
6412;SDS011;3239;48.714;9.472;2023-06-26T15:01:42;4.73;;;4.07;;
6412;SDS011;3239;48.714;9.472;2023-06-26T15:04:08;5.77;;;4.53;;
6412;SDS011;3239;48.714;9.472;2023-06-26T15:06:35;6.53;;;4.00;;
6412;SDS011;3239;48.714;9.472;2023-06-26T15:09:00;9.73;;;3.77;;
6412;SDS011;3239;48.714;9.472;2023-06-26T15:11:28;5.60;;;3.80;;
6412;SDS011;3239;48.714;9.472;2023-06-26T15:13:55;6.33;;;3.60;;
6412;SDS011;3239;48.714;9.472;2023-06-26T15:16:21;4.10;;;3.63;;
6412;SDS011;3239;48.714;9.472;2023-06-26T15:18:47;8.20;;;3.17;;
6412;SDS011;3239;48.714;9.472;2023-06-26T15:21:13;5.97;;;3.50;;
6412;SDS011;3239;48.714;9.472;2023-06-26T15:23:39;8.60;;;3.07;;